Terminal Aerodrome Forecast
Issued by NWS Pendleton, OR

Home | Current Version | Previous Version | Text Only | Print | Product List | Glossary On
Versions: 1 2 3 4 5 6 7 8 9 10 11 12 13 14 15
000
FTUS46 KPDT 272320
TAFPDT
TAF
KPDT 272320Z 2800/2824 28020G30KT P6SM BKN150
     FM280200 27018G27KT P6SM SCT150
     FM280500 25015KT P6SM FEW250
     FM281000 20008KT P6SM FEW250
     FM281800 29009G16KT P6SM FEW250=

USA.gov is the U.S. government's official web portal to all federal, state and local government web resources and services.